createdAt,value
2023-01-05T00:00:32.971Z,38.72
2023-01-05T00:03:03.142Z,38.54
2023-01-05T00:05:33.144Z,39.00
2023-01-05T00:08:03.623Z,38.91
2023-01-05T00:10:50.661Z,38.38
2023-01-05T00:13:37.586Z,38.31
2023-01-05T00:16:41.226Z,38.35
2023-01-05T00:19:30.900Z,38.95
2023-01-05T00:22:17.933Z,38.47
2023-01-05T00:24:47.925Z,38.83
2023-01-05T00:27:18.389Z,38.46
2023-01-05T00:29:49.010Z,38.69
2023-01-05T00:32:21.458Z,38.91
2023-01-05T00:34:54.649Z,38.80
2023-01-05T00:37:26.643Z,38.96
2023-01-05T00:39:57.254Z,38.86
2023-01-05T00:42:28.189Z,39.01
2023-01-05T00:44:58.588Z,38.54
2023-01-05T00:47:31.275Z,38.51
2023-01-05T00:50:01.150Z,38.79
2023-01-05T00:52:31.917Z,39.01
2023-01-05T00:55:02.511Z,38.99
2023-01-05T00:57:33.583Z,39.02
2023-01-05T01:00:04.440Z,38.63
2023-01-05T01:02:36.923Z,38.78
2023-01-05T01:05:09.349Z,38.76
2023-01-05T01:07:40.064Z,39.30
2023-01-05T01:10:13.629Z,39.19
2023-01-05T01:12:44.123Z,39.20
2023-01-05T01:15:14.498Z,39.38
2023-01-05T01:17:47.060Z,38.74
2023-01-05T01:20:17.501Z,38.97
2023-01-05T01:22:47.910Z,38.96
2023-01-05T01:25:18.101Z,39.15
2023-01-05T01:27:48.115Z,39.45
2023-01-05T01:30:18.664Z,38.96
2023-01-05T01:32:51.218Z,39.46
2023-01-05T01:35:20.964Z,39.00
2023-01-05T01:37:51.379Z,39.41
2023-01-05T01:40:21.618Z,39.41
2023-01-05T01:42:51.794Z,39.65
2023-01-05T01:45:24.746Z,39.56
2023-01-05T01:48:01.171Z,39.38
2023-01-05T01:50:36.734Z,39.16
2023-01-05T01:53:10.582Z,39.38
2023-01-05T01:55:42.603Z,39.57
2023-01-05T01:58:19.168Z,39.34
2023-01-05T02:00:50.012Z,39.30
2023-01-05T02:03:22.851Z,39.57
2023-01-05T02:05:53.228Z,39.53
2023-01-05T02:08:31.877Z,39.38
2023-01-05T02:11:30.525Z,39.39
2023-01-05T02:14:28.916Z,39.42
2023-01-05T02:17:18.266Z,39.58
2023-01-05T02:20:33.195Z,39.56
2023-01-05T02:23:56.088Z,39.47
2023-01-05T02:27:26.219Z,39.61
2023-01-05T02:31:02.349Z,39.66
2023-01-05T02:33:55.431Z,39.56
2023-01-05T02:36:32.377Z,39.95
2023-01-05T02:39:10.949Z,39.49
2023-01-05T02:41:50.923Z,39.43
2023-01-05T02:44:22.401Z,39.93
2023-01-05T02:47:04.736Z,39.70
2023-01-05T02:49:42.764Z,39.90
2023-01-05T02:52:15.378Z,39.80
2023-01-05T02:54:51.469Z,39.71
2023-01-05T02:57:47.511Z,39.83
2023-01-05T03:00:24.901Z,39.73
2023-01-05T03:03:03.355Z,39.81
2023-01-05T03:05:40.502Z,39.79
2023-01-05T03:08:26.295Z,39.59
2023-01-05T03:11:19.985Z,39.75
2023-01-05T03:13:58.248Z,39.88
2023-01-05T03:16:36.702Z,39.49
2023-01-05T03:19:30.519Z,40.06
2023-01-05T03:22:24.796Z,39.92
2023-01-05T03:25:11.755Z,40.13
2023-01-05T03:28:00.212Z,40.14
2023-01-05T03:30:59.572Z,39.85
2023-01-05T03:34:01.767Z,40.05
2023-01-05T03:36:39.733Z,40.22
2023-01-05T03:39:16.510Z,40.09
2023-01-05T03:41:47.368Z,39.89
2023-01-05T03:44:17.310Z,40.33
2023-01-05T03:46:48.135Z,40.08
2023-01-05T03:49:23.682Z,39.85
2023-01-05T03:51:54.117Z,40.43
2023-01-05T03:54:26.539Z,40.52
2023-01-05T03:56:57.027Z,40.54
2023-01-05T03:59:27.451Z,40.35
2023-01-05T04:01:58.223Z,40.60
2023-01-05T04:04:28.793Z,39.85
2023-01-05T04:06:59.323Z,40.40
2023-01-05T04:09:31.285Z,40.07
2023-01-05T04:12:01.673Z,39.91
2023-01-05T04:14:34.061Z,40.65
2023-01-05T04:17:07.019Z,40.41
2023-01-05T04:19:37.535Z,39.98
2023-01-05T04:22:07.636Z,40.28
2023-01-05T04:24:40.343Z,40.09
2023-01-05T04:27:10.671Z,40.19
2023-01-05T04:29:40.786Z,40.54
2023-01-05T04:32:11.006Z,40.37
2023-01-05T04:34:41.536Z,40.20
2023-01-05T04:37:12.176Z,40.39
2023-01-05T04:39:44.529Z,40.23
2023-01-05T04:42:14.459Z,40.63
2023-01-05T04:44:44.869Z,40.37
2023-01-05T04:47:15.277Z,40.26
2023-01-05T04:49:45.049Z,40.20
2023-01-05T04:52:15.423Z,40.74
2023-01-05T04:54:47.565Z,40.32
2023-01-05T04:57:18.991Z,40.30
2023-01-05T04:59:49.646Z,40.29
2023-01-05T05:02:20.550Z,40.73
2023-01-05T05:04:51.033Z,40.70
2023-01-05T05:07:21.487Z,40.89
2023-01-05T05:09:53.952Z,40.35
2023-01-05T05:12:24.091Z,40.78
2023-01-05T05:14:54.598Z,40.83
2023-01-05T05:17:25.121Z,40.89
2023-01-05T05:19:55.530Z,41.07
2023-01-05T05:22:26.682Z,40.88
2023-01-05T05:24:59.360Z,40.85
2023-01-05T05:27:30.350Z,40.92
2023-01-05T05:30:00.668Z,41.13
2023-01-05T05:32:30.892Z,40.62
2023-01-05T05:35:01.285Z,40.97
2023-01-05T05:37:31.000Z,40.95
2023-01-05T05:40:03.418Z,41.14
2023-01-05T05:42:33.992Z,41.14
2023-01-05T05:45:04.540Z,41.21
2023-01-05T05:47:35.280Z,41.03
2023-01-05T05:50:05.957Z,40.97
2023-01-05T05:52:35.691Z,40.97
2023-01-05T05:55:10.314Z,40.92
2023-01-05T05:57:40.623Z,41.11
2023-01-05T06:00:12.363Z,41.00
2023-01-05T06:02:43.494Z,40.99
2023-01-05T06:05:13.825Z,41.58
2023-01-05T06:07:44.261Z,41.05
2023-01-05T06:10:17.482Z,40.87
2023-01-05T06:12:47.759Z,40.94
2023-01-05T06:15:18.474Z,41.47
2023-01-05T06:17:49.733Z,41.55
2023-01-05T06:20:20.397Z,41.50
2023-01-05T06:22:50.206Z,42.11
2023-01-05T06:25:22.670Z,42.42
2023-01-05T06:27:53.358Z,42.04
2023-01-05T06:30:24.205Z,42.57
2023-01-05T06:32:54.817Z,42.56
2023-01-05T06:35:25.906Z,42.58
2023-01-05T06:37:55.967Z,43.17
2023-01-05T06:40:28.160Z,43.06
2023-01-05T06:42:58.803Z,42.72
2023-01-05T06:45:29.442Z,43.07
2023-01-05T06:47:59.810Z,43.05
2023-01-05T06:50:30.850Z,42.71
2023-01-05T06:53:01.527Z,42.74
2023-01-05T06:55:34.249Z,42.61
2023-01-05T06:58:04.005Z,42.51
2023-01-05T07:00:34.696Z,42.55
2023-01-05T07:03:05.039Z,42.56
2023-01-05T07:05:35.997Z,42.59
2023-01-05T07:08:05.975Z,42.50
2023-01-05T07:10:38.009Z,42.39
2023-01-05T07:13:07.633Z,42.36
2023-01-05T07:15:37.648Z,42.24
2023-01-05T07:18:08.041Z,42.37
2023-01-05T07:20:38.869Z,42.01
2023-01-05T07:23:09.502Z,41.85
2023-01-05T07:25:41.849Z,41.71
2023-01-05T07:28:12.400Z,41.65
2023-01-05T07:30:42.917Z,41.63
2023-01-05T07:33:13.367Z,41.65
2023-01-05T07:35:43.835Z,41.24
2023-01-05T07:38:13.591Z,41.15
2023-01-05T07:40:46.351Z,41.38
2023-01-05T07:43:16.963Z,41.14
2023-01-05T07:45:47.109Z,40.88
2023-01-05T07:48:23.224Z,40.95
2023-01-05T07:50:54.125Z,40.57
2023-01-05T07:53:26.151Z,40.32
2023-01-05T07:56:05.719Z,40.42
2023-01-05T07:58:36.288Z,39.78
2023-01-05T08:01:08.671Z,39.50
2023-01-05T08:03:39.527Z,39.28
2023-01-05T08:06:13.003Z,39.20
2023-01-05T08:08:43.812Z,39.28
2023-01-05T08:11:20.258Z,39.22
2023-01-05T08:14:03.214Z,39.36
2023-01-05T08:16:35.957Z,39.36
2023-01-05T08:19:10.887Z,39.30
2023-01-05T08:21:41.923Z,39.92
2023-01-05T08:24:12.237Z,39.81
2023-01-05T08:26:43.738Z,39.37
2023-01-05T08:29:14.198Z,39.50
2023-01-05T08:31:44.864Z,39.38
2023-01-05T08:34:15.179Z,39.93
2023-01-05T08:36:45.745Z,39.73
2023-01-05T08:39:16.131Z,39.13
2023-01-05T08:41:50.395Z,39.53
2023-01-05T08:44:20.964Z,39.15
2023-01-05T08:46:51.654Z,39.79
2023-01-05T08:49:22.653Z,39.52
2023-01-05T08:51:53.162Z,39.08
2023-01-05T08:54:23.735Z,37.71
2023-01-05T08:56:57.427Z,37.20
2023-01-05T08:59:29.046Z,36.58
2023-01-05T09:02:00.077Z,36.81
2023-01-05T09:04:30.704Z,36.78
2023-01-05T09:07:01.332Z,35.84
2023-01-05T09:09:31.810Z,35.58
2023-01-05T09:12:03.118Z,35.46
2023-01-05T09:14:35.300Z,35.46
2023-01-05T09:17:08.048Z,35.72
2023-01-05T09:19:40.257Z,35.59
2023-01-05T09:22:10.736Z,35.35
2023-01-05T09:24:41.218Z,35.99
2023-01-05T09:27:13.161Z,35.85
2023-01-05T09:29:43.310Z,35.98
2023-01-05T09:32:13.815Z,36.07
2023-01-05T09:34:45.429Z,36.14
2023-01-05T09:37:15.649Z,35.80
2023-01-05T09:39:46.069Z,36.20
2023-01-05T09:42:23.892Z,35.70
2023-01-05T09:45:02.412Z,36.21
2023-01-05T09:47:39.901Z,35.64
2023-01-05T09:50:20.637Z,35.70
2023-01-05T09:52:55.146Z,35.59
2023-01-05T09:55:31.269Z,35.58
2023-01-05T09:58:13.046Z,35.66
2023-01-05T10:00:54.383Z,35.98
2023-01-05T10:04:02.433Z,35.60
2023-01-05T10:06:20.226Z,35.60
2023-01-05T10:08:54.351Z,35.92
2023-01-05T10:11:53.206Z,35.69
2023-01-05T10:14:35.689Z,35.35
2023-01-05T10:17:39.848Z,35.79
2023-01-05T10:20:00.311Z,35.63
2023-01-05T10:22:46.108Z,35.80
2023-01-05T10:25:26.824Z,35.98
2023-01-05T10:28:11.011Z,36.05
2023-01-05T10:31:00.123Z,35.84
2023-01-05T10:33:56.750Z,36.25
2023-01-05T10:37:09.674Z,36.12
2023-01-05T10:40:05.656Z,36.28
2023-01-05T10:42:50.345Z,36.19
2023-01-05T10:45:22.410Z,35.90
2023-01-05T10:47:54.560Z,36.12
2023-01-05T10:50:38.468Z,36.06
2023-01-05T10:53:15.659Z,35.85
2023-01-05T10:55:57.239Z,35.91
2023-01-05T10:58:30.799Z,36.30
2023-01-05T11:01:07.250Z,35.82
2023-01-05T11:04:25.222Z,36.05
2023-01-05T11:06:38.860Z,35.77
2023-01-05T11:09:22.647Z,35.70
2023-01-05T11:11:59.190Z,35.98
2023-01-05T11:14:35.319Z,35.79
2023-01-05T11:17:09.419Z,36.18
2023-01-05T11:19:54.153Z,36.05
2023-01-05T11:22:36.344Z,35.92
2023-01-05T11:25:29.926Z,35.89
2023-01-05T11:28:16.788Z,35.99
2023-01-05T11:31:02.465Z,35.91
2023-01-05T11:33:40.344Z,36.05
2023-01-05T11:36:17.413Z,35.95
2023-01-05T11:38:55.185Z,35.89
2023-01-05T11:41:27.041Z,36.02
2023-01-05T11:44:01.367Z,35.82
2023-01-05T11:46:45.368Z,35.73
2023-01-05T11:49:21.386Z,36.06
2023-01-05T11:51:54.066Z,36.01
2023-01-05T11:54:40.694Z,36.30
2023-01-05T11:57:19.295Z,36.05
2023-01-05T11:59:51.562Z,36.16
2023-01-05T12:03:15.060Z,36.11
2023-01-05T12:05:53.188Z,36.26
2023-01-05T12:08:33.633Z,36.38
2023-01-05T12:11:17.397Z,36.20
2023-01-05T12:14:09.642Z,36.29
2023-01-05T12:16:49.131Z,36.24
2023-01-05T12:20:07.463Z,36.40
2023-01-05T12:23:40.438Z,36.35
2023-01-05T12:26:27.876Z,36.16
2023-01-05T12:36:19.315Z,36.37
2023-01-05T12:39:16.420Z,36.55
2023-01-05T12:42:23.072Z,36.41
2023-01-05T12:45:44.207Z,36.66
2023-01-05T12:48:23.507Z,36.44
2023-01-05T12:51:07.883Z,36.52
2023-01-05T12:54:02.812Z,36.42
2023-01-05T12:56:41.752Z,36.30
2023-01-05T12:59:23.275Z,36.48
2023-01-05T13:02:15.364Z,36.54
2023-01-05T13:04:57.293Z,36.43
2023-01-05T13:07:50.884Z,36.56
2023-01-05T13:10:30.695Z,36.45
2023-01-05T13:13:07.784Z,36.44
2023-01-05T13:15:45.627Z,36.24
2023-01-05T13:18:21.404Z,36.20
2023-01-05T13:20:56.928Z,36.43
2023-01-05T13:23:33.124Z,36.11
2023-01-05T13:26:13.251Z,36.47
2023-01-05T13:28:44.207Z,36.30
2023-01-05T13:32:01.844Z,36.41
2023-01-05T13:35:01.017Z,36.38
2023-01-05T13:38:28.535Z,36.37
2023-01-05T13:41:40.374Z,36.73
2023-01-05T13:45:15.687Z,36.42
2023-01-05T13:48:38.345Z,36.52
2023-01-05T13:51:54.641Z,36.45
2023-01-05T13:54:54.943Z,36.65
2023-01-05T13:57:40.948Z,36.75
2023-01-05T14:00:25.506Z,36.90
2023-01-05T14:03:08.207Z,36.59
2023-01-05T14:05:52.089Z,36.51
2023-01-05T14:08:29.395Z,36.54
2023-01-05T14:11:16.420Z,36.66
2023-01-05T14:13:53.341Z,36.51
2023-01-05T14:17:11.906Z,36.67
2023-01-05T14:19:55.319Z,36.70
2023-01-05T14:22:38.511Z,36.74
2023-01-05T14:25:55.160Z,36.59
2023-01-05T14:28:50.132Z,36.72
2023-01-05T14:31:50.150Z,36.68
2023-01-05T14:34:23.659Z,36.63
2023-01-05T14:37:09.263Z,36.63
2023-01-05T14:39:48.007Z,36.83
2023-01-05T14:42:37.665Z,36.52
2023-01-05T14:45:25.834Z,36.93
2023-01-05T14:47:59.975Z,36.70
2023-01-05T14:50:38.563Z,36.75
2023-01-05T14:53:16.686Z,36.67
2023-01-05T14:56:23.999Z,36.75
2023-01-05T14:59:20.208Z,36.52
2023-01-05T15:02:19.488Z,36.55
2023-01-05T15:07:45.673Z,37.21
2023-01-05T15:10:52.920Z,36.60
2023-01-05T15:14:27.216Z,36.66
2023-01-05T15:17:50.087Z,36.83
2023-01-05T15:21:01.373Z,36.91
2023-01-05T15:24:05.522Z,36.91
2023-01-05T15:27:01.445Z,36.81
2023-01-05T15:30:06.543Z,36.86
2023-01-05T15:32:46.054Z,37.17
2023-01-05T15:35:21.315Z,37.01
2023-01-05T15:37:54.049Z,36.97
2023-01-05T15:40:36.240Z,37.07
2023-01-05T15:43:08.643Z,36.98
2023-01-05T15:45:43.687Z,36.86
2023-01-05T15:48:21.394Z,37.12
2023-01-05T15:50:55.637Z,36.87
2023-01-05T15:53:36.034Z,36.96
2023-01-05T15:56:08.745Z,37.11
2023-01-05T15:58:48.103Z,37.18
2023-01-05T16:01:19.475Z,37.14
2023-01-05T16:03:52.554Z,36.91
2023-01-05T16:06:27.471Z,36.90
2023-01-05T16:09:11.227Z,36.96
2023-01-05T16:11:47.497Z,36.90
2023-01-05T16:14:29.323Z,36.95
2023-01-05T16:17:07.238Z,37.31
2023-01-05T16:19:44.165Z,37.19
2023-01-05T16:22:21.759Z,37.20
2023-01-05T16:25:05.856Z,36.89
2023-01-05T16:27:41.915Z,37.02
2023-01-05T16:30:33.222Z,37.16
2023-01-05T16:33:12.275Z,37.13
2023-01-05T16:35:47.468Z,37.45
2023-01-05T16:38:26.219Z,37.01
2023-01-05T16:41:25.973Z,37.51
2023-01-05T16:44:00.498Z,37.28
2023-01-05T16:46:43.336Z,37.65
2023-01-05T16:49:43.653Z,37.32
2023-01-05T16:52:28.870Z,37.51
2023-01-05T16:55:29.375Z,37.49
2023-01-05T16:58:03.049Z,37.44
2023-01-05T17:00:40.968Z,37.32
2023-01-05T17:03:33.095Z,37.52
2023-01-05T17:06:04.539Z,37.23
2023-01-05T17:08:38.284Z,37.24
2023-01-05T17:11:14.136Z,37.70
2023-01-05T17:13:48.947Z,37.43
2023-01-05T17:16:19.817Z,37.28
2023-01-05T17:18:52.656Z,37.58
2023-01-05T17:21:27.911Z,37.99
2023-01-05T17:24:02.005Z,37.38
2023-01-05T17:26:37.690Z,37.68
2023-01-05T17:29:12.968Z,37.62
2023-01-05T17:31:43.419Z,37.59
2023-01-05T17:34:14.746Z,37.55
2023-01-05T17:36:46.449Z,37.57
2023-01-05T17:39:18.194Z,37.56
2023-01-05T17:41:48.281Z,37.82
2023-01-05T17:44:26.485Z,37.82
2023-01-05T17:46:57.163Z,37.50
2023-01-05T17:54:34.038Z,37.56
2023-01-05T17:57:04.767Z,37.88
2023-01-05T17:59:38.200Z,37.77
2023-01-05T18:02:09.048Z,38.13
2023-01-05T18:04:39.014Z,37.80
2023-01-05T18:07:13.713Z,37.74
2023-01-05T18:09:44.490Z,37.94
2023-01-05T18:12:15.021Z,37.92
2023-01-05T18:14:46.808Z,37.82
2023-01-05T18:17:17.958Z,37.92
2023-01-05T18:19:48.862Z,37.95
2023-01-05T18:22:19.341Z,37.97
2023-01-05T18:24:49.908Z,38.12
2023-01-05T18:27:20.347Z,37.89
2023-01-05T18:30:02.108Z,37.93
2023-01-05T18:32:32.680Z,38.02
2023-01-05T18:35:07.253Z,38.31
2023-01-05T18:37:41.519Z,38.02
2023-01-05T18:40:14.565Z,38.50
2023-01-05T18:42:45.454Z,38.38
2023-01-05T18:45:19.462Z,38.47
2023-01-05T18:48:00.367Z,38.29
2023-01-05T18:50:30.945Z,38.38
2023-01-05T18:53:02.082Z,38.48
2023-01-05T18:55:32.570Z,38.62
2023-01-05T18:58:02.719Z,38.67
2023-01-05T19:00:35.765Z,38.83
2023-01-05T19:03:06.634Z,38.62
2023-01-05T19:05:42.379Z,38.66
2023-01-05T19:08:14.134Z,38.55
2023-01-05T19:10:45.156Z,39.15
2023-01-05T19:13:15.712Z,38.86
2023-01-05T19:15:48.696Z,38.86
2023-01-05T19:18:19.392Z,39.12
2023-01-05T19:20:58.243Z,38.98
2023-01-05T19:23:29.382Z,39.05
2023-01-05T19:26:05.059Z,39.19
2023-01-05T19:28:38.397Z,39.08
2023-01-05T19:31:15.408Z,39.02
2023-01-05T19:33:47.622Z,39.10
2023-01-05T19:36:21.893Z,39.09
2023-01-05T19:38:55.153Z,39.24
2023-01-05T19:41:26.980Z,39.17
2023-01-05T19:43:59.427Z,39.45
2023-01-05T19:46:32.428Z,39.38
2023-01-05T19:49:03.776Z,39.11
2023-01-05T19:51:37.324Z,39.18
2023-01-05T19:54:08.091Z,39.26
2023-01-05T19:56:39.979Z,39.62
2023-01-05T19:59:22.258Z,39.54
2023-01-05T20:01:56.770Z,39.26
2023-01-05T20:04:27.192Z,39.28
2023-01-05T20:06:58.224Z,39.75
2023-01-05T20:09:29.123Z,39.57
2023-01-05T20:12:13.246Z,39.45
2023-01-05T20:14:45.314Z,39.78
2023-01-05T20:17:18.888Z,39.71
2023-01-05T20:19:49.465Z,39.68
2023-01-05T20:22:20.499Z,39.59
2023-01-05T20:24:51.782Z,39.78
2023-01-05T20:27:22.360Z,39.88
2023-01-05T20:29:57.884Z,39.66
2023-01-05T20:35:45.156Z,39.68
2023-01-05T20:38:20.043Z,40.02
2023-01-05T20:40:56.423Z,39.89
2023-01-05T20:43:40.611Z,39.91
2023-01-05T20:46:19.014Z,40.11
2023-01-05T20:51:57.084Z,40.31
2023-01-05T20:54:55.714Z,40.45
2023-01-05T20:57:30.435Z,40.43
2023-01-05T21:00:07.076Z,40.00
2023-01-05T21:02:49.574Z,40.67
2023-01-05T21:05:29.173Z,40.23
2023-01-05T21:07:59.939Z,40.43
2023-01-05T21:10:29.883Z,40.20
2023-01-05T21:13:32.160Z,40.35
2023-01-05T21:16:00.715Z,40.07
2023-01-05T21:18:31.505Z,40.32
2023-01-05T21:21:07.864Z,40.61
2023-01-05T21:23:39.139Z,40.53
2023-01-05T21:26:13.645Z,40.29
2023-01-05T21:28:47.300Z,40.39
2023-01-05T21:31:20.433Z,40.22
2023-01-05T21:33:51.320Z,40.20
2023-01-05T21:36:27.448Z,40.40
2023-01-05T21:39:04.105Z,40.60
2023-01-05T21:41:52.266Z,40.23
2023-01-05T21:44:24.084Z,40.31
2023-01-05T21:46:54.900Z,40.65
2023-01-05T21:49:25.283Z,40.41
2023-01-05T21:52:13.956Z,40.53
2023-01-05T21:55:01.276Z,40.81
2023-01-05T21:57:31.646Z,40.68
2023-01-05T22:00:01.507Z,40.39
2023-01-05T22:02:32.151Z,40.68
2023-01-05T22:05:02.453Z,40.67
2023-01-05T22:07:34.559Z,40.38
2023-01-05T22:10:05.042Z,40.87
2023-01-05T22:12:35.189Z,40.40
2023-01-05T22:15:05.885Z,40.81
2023-01-05T22:17:36.573Z,40.29
2023-01-05T22:20:07.700Z,40.28
2023-01-05T22:22:39.966Z,40.59
2023-01-05T22:25:10.939Z,40.54
2023-01-05T22:27:41.169Z,40.32
2023-01-05T22:30:13.079Z,40.70
2023-01-05T22:32:43.915Z,40.48
2023-01-05T22:35:14.359Z,40.56
2023-01-05T22:37:46.554Z,40.46
2023-01-05T22:40:17.263Z,40.82
2023-01-05T22:42:47.730Z,40.45
2023-01-05T22:45:18.713Z,40.63
2023-01-05T22:47:49.230Z,40.83
2023-01-05T22:50:19.664Z,41.11
2023-01-05T22:52:52.148Z,40.42
2023-01-05T22:55:21.863Z,40.46
2023-01-05T22:57:51.873Z,40.66
2023-01-05T23:00:22.287Z,40.52
2023-01-05T23:02:52.783Z,40.86
2023-01-05T23:05:23.211Z,40.79
2023-01-05T23:07:55.142Z,41.16
2023-01-05T23:10:28.104Z,41.09
2023-01-05T23:12:57.854Z,40.99
2023-01-05T23:15:28.616Z,40.57
2023-01-05T23:17:59.079Z,40.84
2023-01-05T23:20:29.462Z,40.54
2023-01-05T23:23:01.568Z,40.97
2023-01-05T23:25:31.429Z,40.91
2023-01-05T23:28:01.190Z,40.57
2023-01-05T23:30:31.998Z,40.46
2023-01-05T23:33:02.051Z,40.77
2023-01-05T23:35:32.221Z,40.75
2023-01-05T23:38:04.762Z,40.94
2023-01-05T23:40:35.007Z,40.67
2023-01-05T23:43:05.423Z,40.85
2023-01-05T23:45:35.959Z,41.28
2023-01-05T23:48:06.752Z,41.13
2023-01-05T23:50:37.618Z,40.71
2023-01-05T23:53:09.664Z,41.27
2023-01-05T23:55:40.969Z,41.24
2023-01-05T23:58:13.038Z,41.18
